createdAt,value
2017-09-15T00:01:34.738Z,9.44
2017-09-15T00:04:03.070Z,9.55
2017-09-15T00:06:31.422Z,9.47
2017-09-15T00:08:59.790Z,9.49
2017-09-15T00:11:28.178Z,9.54
2017-09-15T00:13:56.575Z,9.51
2017-09-15T00:16:24.934Z,9.49
2017-09-15T00:18:53.362Z,9.45
2017-09-15T00:21:21.711Z,9.40
2017-09-15T00:23:50.149Z,9.41
2017-09-15T00:26:18.529Z,9.38
2017-09-15T00:28:46.854Z,9.38
2017-09-15T00:31:15.203Z,9.27
2017-09-15T00:33:43.566Z,9.33
2017-09-15T00:36:11.935Z,9.39
2017-09-15T00:38:40.899Z,9.37
2017-09-15T00:41:09.322Z,9.38
2017-09-15T00:43:37.702Z,9.36
2017-09-15T00:46:06.037Z,9.32
2017-09-15T00:48:34.373Z,9.30
2017-09-15T00:51:02.732Z,9.37
2017-09-15T00:53:31.071Z,9.38
2017-09-15T00:55:59.534Z,9.45
2017-09-15T00:58:27.866Z,9.44
2017-09-15T01:00:56.198Z,9.44
2017-09-15T01:03:24.554Z,9.50
2017-09-15T01:05:52.884Z,9.43
2017-09-15T01:08:21.266Z,9.52
2017-09-15T01:10:49.589Z,9.59
2017-09-15T01:13:17.926Z,9.52
2017-09-15T01:15:46.264Z,9.47
2017-09-15T01:18:14.650Z,9.43
2017-09-15T01:20:43.373Z,9.45
2017-09-15T01:23:11.834Z,9.38
2017-09-15T01:25:40.246Z,9.37
2017-09-15T01:28:08.565Z,9.44
2017-09-15T01:30:37.014Z,9.30
2017-09-15T01:33:05.413Z,9.30
2017-09-15T01:35:33.802Z,9.26
2017-09-15T01:38:02.182Z,9.34
2017-09-15T01:40:30.518Z,9.31
2017-09-15T01:42:58.854Z,9.23
2017-09-15T01:45:27.258Z,9.24
2017-09-15T01:47:55.682Z,9.30
2017-09-15T01:50:24.011Z,9.29
2017-09-15T01:52:52.350Z,9.34
2017-09-15T01:55:20.706Z,9.40
2017-09-15T01:57:49.046Z,9.27
2017-09-15T02:00:17.409Z,9.30
2017-09-15T02:02:45.742Z,9.22
2017-09-15T02:05:14.080Z,9.27
2017-09-15T02:07:42.431Z,9.16
2017-09-15T02:10:10.898Z,9.19
2017-09-15T02:12:39.225Z,9.22
2017-09-15T02:15:07.575Z,9.23
2017-09-15T02:17:35.938Z,9.23
2017-09-15T02:20:04.289Z,9.22
2017-09-15T02:22:32.627Z,9.22
2017-09-15T02:25:01.042Z,9.19
2017-09-15T02:27:29.503Z,9.17
2017-09-15T02:29:57.899Z,9.16
2017-09-15T02:32:26.255Z,9.11
2017-09-15T02:34:54.610Z,9.14
2017-09-15T02:37:22.997Z,9.12
2017-09-15T02:39:51.350Z,9.16
2017-09-15T02:42:19.714Z,9.16
2017-09-15T02:44:48.075Z,9.23
2017-09-15T02:47:16.438Z,9.22
2017-09-15T02:49:45.222Z,9.17
2017-09-15T02:52:13.582Z,9.12
2017-09-15T02:54:41.922Z,9.13
2017-09-15T02:57:10.303Z,9.12
2017-09-15T02:59:38.646Z,9.13
2017-09-15T03:02:07.018Z,9.08
2017-09-15T03:04:35.378Z,9.06
2017-09-15T03:07:03.719Z,9.11
2017-09-15T03:09:32.086Z,9.05
2017-09-15T03:12:00.406Z,9.06
2017-09-15T03:14:28.767Z,9.02
2017-09-15T03:16:57.123Z,8.98
2017-09-15T03:19:25.455Z,8.99
2017-09-15T03:21:53.822Z,9.01
2017-09-15T03:24:22.157Z,9.05
2017-09-15T03:26:50.483Z,9.02
2017-09-15T03:29:18.839Z,8.98
2017-09-15T03:31:47.174Z,9.06
2017-09-15T03:34:15.555Z,9.03
2017-09-15T03:36:43.878Z,9.11
2017-09-15T03:39:12.438Z,9.06
2017-09-15T03:41:40.771Z,9.03
2017-09-15T03:44:09.230Z,8.99
2017-09-15T03:46:37.559Z,9.00
2017-09-15T03:49:05.899Z,8.96
2017-09-15T03:51:34.265Z,9.07
2017-09-15T03:54:02.595Z,8.95
2017-09-15T03:56:30.959Z,8.90
2017-09-15T03:58:59.358Z,8.87
2017-09-15T04:01:27.755Z,8.80
2017-09-15T04:03:56.147Z,8.84
2017-09-15T04:06:24.483Z,8.70
2017-09-15T04:08:52.810Z,8.61
2017-09-15T04:11:21.163Z,8.58
2017-09-15T04:13:49.519Z,8.46
2017-09-15T04:16:17.853Z,8.42
2017-09-15T04:18:46.259Z,8.41
2017-09-15T04:21:14.684Z,8.41
2017-09-15T04:23:43.099Z,8.37
2017-09-15T04:26:11.463Z,8.28
2017-09-15T04:28:40.275Z,8.32
2017-09-15T04:31:08.638Z,8.33
2017-09-15T04:33:36.979Z,8.24
2017-09-15T04:36:05.319Z,8.29
2017-09-15T04:38:33.726Z,8.32
2017-09-15T04:41:02.115Z,8.37
2017-09-15T04:43:30.514Z,8.33
2017-09-15T04:45:58.846Z,8.42
2017-09-15T04:48:27.190Z,8.38
2017-09-15T04:50:55.695Z,8.39
2017-09-15T04:53:24.037Z,8.45
2017-09-15T04:55:52.387Z,8.31
2017-09-15T04:58:20.735Z,8.22
2017-09-15T05:00:49.099Z,8.18
2017-09-15T05:03:17.434Z,8.16
2017-09-15T05:05:46.171Z,8.20
2017-09-15T05:08:14.536Z,8.24
2017-09-15T05:10:42.864Z,8.32
2017-09-15T05:13:11.222Z,8.38
2017-09-15T05:15:39.562Z,8.45
2017-09-15T05:18:07.929Z,8.51
2017-09-15T05:20:36.259Z,8.51
2017-09-15T05:23:04.667Z,8.44
2017-09-15T05:25:33.006Z,8.57
2017-09-15T05:28:01.375Z,8.44
2017-09-15T05:30:29.715Z,8.52
2017-09-15T05:32:58.082Z,8.60
2017-09-15T05:35:26.462Z,8.55
2017-09-15T05:37:54.798Z,8.76
2017-09-15T05:40:23.170Z,8.72
2017-09-15T05:42:51.668Z,8.85
2017-09-15T05:45:20.064Z,8.82
2017-09-15T05:47:48.403Z,8.90
2017-09-15T05:50:16.742Z,8.80
2017-09-15T05:52:45.091Z,8.90
2017-09-15T05:55:13.475Z,8.92
2017-09-15T05:57:41.860Z,8.89
2017-09-15T06:00:10.201Z,9.04
2017-09-15T06:02:38.583Z,9.01
2017-09-15T06:05:06.922Z,9.05
2017-09-15T06:07:35.294Z,9.17
2017-09-15T06:10:03.631Z,9.22
2017-09-15T06:12:32.954Z,9.24
2017-09-15T06:15:01.301Z,9.37
2017-09-15T06:17:29.630Z,9.39
2017-09-15T06:19:58.007Z,9.41
2017-09-15T06:22:26.339Z,9.44
2017-09-15T06:24:54.699Z,9.46
2017-09-15T06:27:23.034Z,9.50
2017-09-15T06:29:51.370Z,9.46
2017-09-15T06:32:19.703Z,9.41
2017-09-15T06:34:48.062Z,9.50
2017-09-15T06:37:16.389Z,9.62
2017-09-15T06:39:44.751Z,9.48
2017-09-15T06:42:13.112Z,9.61
2017-09-15T06:44:41.434Z,9.51
2017-09-15T06:47:09.792Z,9.50
2017-09-15T06:49:38.123Z,9.45
2017-09-15T06:52:06.483Z,9.50
2017-09-15T06:54:34.812Z,9.57
2017-09-15T06:57:03.170Z,9.71
2017-09-15T06:59:31.510Z,9.79
2017-09-15T07:01:59.863Z,9.83
2017-09-15T07:04:28.203Z,9.87
2017-09-15T07:06:56.558Z,9.78
2017-09-15T07:09:24.947Z,9.91
2017-09-15T07:11:53.279Z,9.87
2017-09-15T07:14:21.631Z,9.94
2017-09-15T07:16:49.979Z,10.00
2017-09-15T07:19:18.342Z,9.87
2017-09-15T07:21:46.671Z,9.84
2017-09-15T07:24:15.011Z,9.80
2017-09-15T07:26:43.368Z,9.67
2017-09-15T07:29:11.698Z,9.87
2017-09-15T07:31:40.078Z,9.97
2017-09-15T07:34:08.415Z,9.86
2017-09-15T07:36:36.786Z,10.10
2017-09-15T07:39:05.122Z,10.26
2017-09-15T07:41:33.465Z,10.35
2017-09-15T07:44:01.807Z,10.33
2017-09-15T07:46:30.146Z,10.78
2017-09-15T07:48:58.506Z,10.89
2017-09-15T07:51:26.910Z,10.67
2017-09-15T07:53:55.379Z,10.63
2017-09-15T07:56:23.711Z,10.52
2017-09-15T07:58:52.047Z,10.41
2017-09-15T08:01:20.415Z,10.35
2017-09-15T08:03:49.746Z,10.38
2017-09-15T08:09:37.698Z,10.64
2017-09-15T08:28:03.081Z,11.42
2017-09-15T08:30:32.415Z,11.67
2017-09-15T08:33:04.754Z,12.32
2017-09-15T08:35:36.346Z,12.49
2017-09-15T08:38:06.658Z,12.31
2017-09-15T08:40:38.634Z,12.08
2017-09-15T08:43:08.282Z,12.62
2017-09-15T08:45:37.299Z,13.01
2017-09-15T08:48:05.623Z,13.41
2017-09-15T08:50:33.962Z,14.97
2017-09-15T08:53:02.302Z,14.75
2017-09-15T08:55:30.663Z,14.10
2017-09-15T08:57:58.999Z,15.27
2017-09-15T09:00:27.366Z,14.88
2017-09-15T09:02:55.787Z,13.81
2017-09-15T09:05:24.189Z,13.38
2017-09-15T09:07:52.581Z,12.86
2017-09-15T09:10:20.910Z,12.56
2017-09-15T09:12:49.242Z,12.13
2017-09-15T09:15:17.575Z,12.09
2017-09-15T09:17:45.935Z,11.88
2017-09-15T09:20:14.302Z,11.84
2017-09-15T09:22:42.648Z,12.00
2017-09-15T09:25:10.979Z,12.11
2017-09-15T09:27:39.317Z,12.09
2017-09-15T09:30:07.663Z,12.33
2017-09-15T09:32:35.998Z,12.52
2017-09-15T09:35:04.395Z,12.70
2017-09-15T09:37:32.730Z,13.01
2017-09-15T09:40:01.065Z,13.12
2017-09-15T09:42:29.395Z,13.12
2017-09-15T09:44:57.739Z,14.01
2017-09-15T09:47:26.106Z,13.95
2017-09-15T09:49:54.470Z,14.03
2017-09-15T09:52:22.802Z,13.57
2017-09-15T09:54:51.134Z,13.30
2017-09-15T09:57:19.471Z,12.72
2017-09-15T09:59:47.802Z,12.59
2017-09-15T10:02:16.166Z,12.47
2017-09-15T10:04:44.498Z,12.46
2017-09-15T10:07:12.842Z,12.62
2017-09-15T10:09:41.174Z,12.44
2017-09-15T10:12:09.503Z,12.12
2017-09-15T10:14:37.859Z,12.12
2017-09-15T10:17:06.219Z,12.22
2017-09-15T10:19:34.562Z,12.51
2017-09-15T10:22:02.920Z,12.23
2017-09-15T10:24:31.274Z,12.21
2017-09-15T10:26:59.611Z,12.25
2017-09-15T10:29:27.967Z,12.18
2017-09-15T10:31:56.306Z,12.10
2017-09-15T10:34:24.675Z,12.15
2017-09-15T10:36:53.006Z,12.30
2017-09-15T10:39:21.367Z,13.07
2017-09-15T10:41:49.702Z,14.12
2017-09-15T10:44:18.039Z,15.07
2017-09-15T10:46:46.379Z,15.56
2017-09-15T10:49:14.707Z,15.50
2017-09-15T10:51:43.066Z,14.46
2017-09-15T10:54:11.425Z,13.63
2017-09-15T10:56:39.787Z,13.35
2017-09-15T11:02:13.937Z,13.86
2017-09-15T11:04:42.263Z,13.77
2017-09-15T11:07:10.595Z,13.74
2017-09-15T11:09:38.959Z,13.34
2017-09-15T11:12:07.299Z,13.21
2017-09-15T11:14:35.626Z,13.20
2017-09-15T11:17:03.961Z,13.47
2017-09-15T11:19:32.291Z,13.67
2017-09-15T11:22:00.619Z,13.79
2017-09-15T11:24:28.951Z,13.79
2017-09-15T11:26:57.286Z,13.91
2017-09-15T11:29:25.659Z,13.96
2017-09-15T11:31:53.982Z,14.02
2017-09-15T11:34:22.336Z,14.02
2017-09-15T11:36:50.662Z,13.89
2017-09-15T11:39:18.998Z,14.05
2017-09-15T11:41:47.322Z,14.06
2017-09-15T11:44:15.659Z,14.18
2017-09-15T11:46:43.986Z,14.06
2017-09-15T11:49:12.419Z,13.77
2017-09-15T11:51:40.759Z,13.70
2017-09-15T11:54:09.091Z,13.81
2017-09-15T11:56:37.419Z,13.77
2017-09-15T11:59:05.752Z,14.37
2017-09-15T12:01:34.094Z,14.60
2017-09-15T12:04:02.426Z,14.77
2017-09-15T12:06:30.764Z,14.35
2017-09-15T12:08:59.122Z,14.62
2017-09-15T12:11:27.499Z,14.41
2017-09-15T12:13:55.834Z,14.00
2017-09-15T12:16:24.172Z,13.78
2017-09-15T12:18:52.518Z,13.51
2017-09-15T12:21:20.886Z,13.57
2017-09-15T12:23:49.221Z,13.70
2017-09-15T12:26:17.581Z,13.54
2017-09-15T12:28:46.215Z,13.58
2017-09-15T12:31:14.551Z,13.53
2017-09-15T12:33:42.915Z,13.34
2017-09-15T12:36:11.252Z,13.54
2017-09-15T12:38:39.586Z,13.56
2017-09-15T12:41:07.946Z,13.60
2017-09-15T12:43:36.275Z,13.92
2017-09-15T12:46:04.607Z,13.91
2017-09-15T12:48:32.934Z,14.07
2017-09-15T12:51:01.275Z,13.96
2017-09-15T12:53:29.619Z,14.08
2017-09-15T12:55:57.949Z,14.00
2017-09-15T12:58:26.275Z,14.23
2017-09-15T13:00:54.612Z,14.29
2017-09-15T13:03:22.938Z,13.98
2017-09-15T13:05:51.275Z,13.57
2017-09-15T13:08:19.646Z,13.09
2017-09-15T13:10:47.971Z,13.10
2017-09-15T13:13:16.306Z,13.12
2017-09-15T13:15:44.662Z,13.23
2017-09-15T13:18:12.997Z,13.23
2017-09-15T13:20:41.353Z,13.12
2017-09-15T13:23:09.690Z,13.31
2017-09-15T13:25:38.019Z,13.07
2017-09-15T13:28:06.391Z,12.99
2017-09-15T13:30:34.743Z,12.50
2017-09-15T13:33:03.075Z,12.53
2017-09-15T13:35:31.444Z,12.69
2017-09-15T13:37:59.775Z,12.84
2017-09-15T13:40:28.111Z,13.11
2017-09-15T13:42:56.478Z,12.99
2017-09-15T13:45:24.839Z,12.70
2017-09-15T13:47:53.214Z,12.43
2017-09-15T13:50:21.575Z,11.95
2017-09-15T13:52:49.906Z,11.63
2017-09-15T13:55:18.242Z,11.14
2017-09-15T13:57:46.594Z,11.09
2017-09-15T14:00:14.966Z,10.99
2017-09-15T14:02:43.326Z,11.06
2017-09-15T14:05:11.686Z,10.90
2017-09-15T14:07:40.025Z,10.67
2017-09-15T14:10:08.354Z,10.93
2017-09-15T14:12:36.714Z,10.95
2017-09-15T14:15:05.059Z,10.86
2017-09-15T14:17:33.378Z,10.85
2017-09-15T14:20:01.744Z,10.94
2017-09-15T14:22:30.071Z,11.10
2017-09-15T14:24:58.436Z,11.30
2017-09-15T14:27:26.790Z,11.46
2017-09-15T14:29:55.164Z,11.64
2017-09-15T14:32:23.518Z,11.55
2017-09-15T14:34:51.913Z,11.27
2017-09-15T14:37:20.243Z,11.29
2017-09-15T14:39:48.601Z,11.21
2017-09-15T14:42:16.976Z,11.28
2017-09-15T14:44:45.338Z,11.24
2017-09-15T14:47:13.704Z,11.26
2017-09-15T14:49:42.035Z,11.32
2017-09-15T14:52:10.371Z,11.46
2017-09-15T14:54:38.702Z,11.75
2017-09-15T14:57:07.040Z,11.89
2017-09-15T14:59:35.425Z,12.08
2017-09-15T15:02:03.767Z,12.43
2017-09-15T15:04:32.300Z,12.22
2017-09-15T15:07:00.676Z,11.93
2017-09-15T15:09:29.003Z,11.84
2017-09-15T15:11:57.370Z,11.59
2017-09-15T15:14:25.707Z,11.63
2017-09-15T15:16:54.063Z,11.49
2017-09-15T15:19:22.391Z,11.27
2017-09-15T15:21:50.758Z,11.06
2017-09-15T15:24:19.096Z,11.04
2017-09-15T15:26:47.495Z,10.90
2017-09-15T15:29:15.869Z,10.78
2017-09-15T15:31:44.194Z,10.65
2017-09-15T15:34:12.527Z,10.69
2017-09-15T15:36:40.894Z,10.73
2017-09-15T15:39:09.218Z,10.70
2017-09-15T15:41:37.583Z,10.78
2017-09-15T15:44:05.947Z,10.95
2017-09-15T15:46:34.274Z,11.03
2017-09-15T15:49:02.741Z,11.07
2017-09-15T15:51:31.076Z,11.18
2017-09-15T15:53:59.406Z,11.32
2017-09-15T15:56:27.874Z,11.47
2017-09-15T15:58:56.195Z,11.59
2017-09-15T16:01:24.531Z,11.57
2017-09-15T16:03:52.894Z,11.50
2017-09-15T16:06:21.228Z,11.48
2017-09-15T16:08:49.607Z,11.39
2017-09-15T16:11:17.942Z,11.35
2017-09-15T16:13:46.280Z,11.39
2017-09-15T16:16:14.611Z,11.31
2017-09-15T16:18:42.947Z,11.38
2017-09-15T16:21:11.309Z,11.29
2017-09-15T16:23:39.642Z,11.22
2017-09-15T16:26:08.005Z,11.06
2017-09-15T16:28:36.339Z,10.82
2017-09-15T16:31:04.999Z,10.62
2017-09-15T16:33:33.331Z,10.71
2017-09-15T16:36:01.679Z,10.59
2017-09-15T16:38:35.531Z,10.67
2017-09-15T16:41:09.472Z,10.60
2017-09-15T16:43:43.447Z,10.58
2017-09-15T16:46:17.278Z,10.44
2017-09-15T16:48:51.070Z,10.38
2017-09-15T16:51:19.448Z,10.35
2017-09-15T16:53:47.811Z,10.20
2017-09-15T16:56:16.140Z,10.25
2017-09-15T16:58:44.514Z,10.31
2017-09-15T17:01:12.847Z,10.04
2017-09-15T17:03:41.202Z,10.03
2017-09-15T17:06:09.536Z,9.85
2017-09-15T17:08:37.853Z,9.79
2017-09-15T17:11:06.183Z,9.70
2017-09-15T17:13:34.507Z,9.67
2017-09-15T17:16:02.859Z,9.56
2017-09-15T17:18:31.183Z,9.51
2017-09-15T17:20:59.510Z,9.44
2017-09-15T17:23:27.845Z,9.32
2017-09-15T17:25:56.206Z,9.24
2017-09-15T17:28:24.530Z,9.14
2017-09-15T17:30:53.281Z,9.09
2017-09-15T17:33:21.619Z,9.06
2017-09-15T17:35:49.942Z,8.98
2017-09-15T17:38:18.271Z,8.99
2017-09-15T17:40:46.599Z,8.93
2017-09-15T17:43:14.928Z,8.89
2017-09-15T17:45:43.279Z,8.80
2017-09-15T17:48:11.611Z,8.83
2017-09-15T17:50:40.281Z,8.63
2017-09-15T17:53:08.606Z,8.43
2017-09-15T17:55:36.930Z,8.45
2017-09-15T17:58:05.291Z,8.38
2017-09-15T18:00:33.942Z,8.26
2017-09-15T18:03:02.314Z,8.18
2017-09-15T18:05:30.655Z,8.19
2017-09-15T18:07:59.002Z,8.13
2017-09-15T18:10:27.338Z,8.22
2017-09-15T18:12:55.671Z,8.00
2017-09-15T18:15:24.031Z,7.99
2017-09-15T18:17:52.388Z,7.95
2017-09-15T18:20:20.738Z,7.94
2017-09-15T18:22:49.098Z,7.81
2017-09-15T18:25:17.423Z,7.81
2017-09-15T18:27:45.862Z,7.82
2017-09-15T18:30:14.188Z,7.89
2017-09-15T18:32:42.530Z,7.85
2017-09-15T18:35:10.902Z,7.77
2017-09-15T18:37:39.236Z,7.75
2017-09-15T18:40:07.562Z,7.83
2017-09-15T18:42:35.886Z,7.95
2017-09-15T18:45:04.259Z,8.19
2017-09-15T18:47:32.806Z,8.33
2017-09-15T18:50:01.151Z,8.44
2017-09-15T18:52:29.504Z,8.48
2017-09-15T18:54:57.863Z,8.73
2017-09-15T18:57:26.527Z,8.80
2017-09-15T18:59:54.886Z,8.93
2017-09-15T19:02:23.207Z,9.01
2017-09-15T19:04:51.537Z,8.97
2017-09-15T19:07:19.885Z,8.96
2017-09-15T19:09:48.219Z,8.85
2017-09-15T19:12:16.573Z,8.83
2017-09-15T19:14:44.905Z,8.81
2017-09-15T19:17:13.260Z,8.71
2017-09-15T19:19:41.588Z,8.62
2017-09-15T19:22:09.923Z,8.58
2017-09-15T19:24:38.250Z,8.51
2017-09-15T19:27:06.570Z,8.29
2017-09-15T19:29:35.091Z,8.35
2017-09-15T19:32:03.416Z,8.20
2017-09-15T19:34:31.770Z,8.19
2017-09-15T19:37:00.099Z,8.22
2017-09-15T19:39:28.437Z,8.16
2017-09-15T19:41:56.783Z,8.10
2017-09-15T19:44:25.126Z,8.02
2017-09-15T19:46:53.734Z,7.98
2017-09-15T19:49:22.063Z,7.90
2017-09-15T19:51:50.391Z,7.92
2017-09-15T19:54:18.718Z,7.90
2017-09-15T19:56:47.046Z,7.93
2017-09-15T19:59:15.405Z,7.86
2017-09-15T20:01:43.726Z,7.75
2017-09-15T20:04:12.061Z,7.81
2017-09-15T20:06:40.439Z,7.75
2017-09-15T20:09:08.790Z,7.67
2017-09-15T20:11:37.123Z,7.58
2017-09-15T20:14:05.451Z,7.45
2017-09-15T20:16:33.819Z,7.26
2017-09-15T20:19:02.417Z,7.22
2017-09-15T20:21:30.750Z,7.24
2017-09-15T20:23:59.086Z,7.29
2017-09-15T20:26:27.411Z,7.25
2017-09-15T20:28:55.743Z,7.12
2017-09-15T20:31:24.095Z,7.01
2017-09-15T20:33:52.426Z,7.11
2017-09-15T20:36:20.896Z,6.94
2017-09-15T20:38:49.214Z,7.08
2017-09-15T20:41:17.550Z,6.92
2017-09-15T20:43:45.875Z,7.01
2017-09-15T20:46:14.234Z,6.89
2017-09-15T20:48:42.607Z,6.86
2017-09-15T20:51:10.963Z,6.87
2017-09-15T20:53:39.284Z,6.94
2017-09-15T20:56:07.652Z,6.96
2017-09-15T20:58:35.974Z,6.88
2017-09-15T21:01:04.306Z,6.85
2017-09-15T21:03:32.631Z,6.84
2017-09-15T21:06:00.987Z,6.85
2017-09-15T21:08:29.319Z,6.87
2017-09-15T21:10:57.652Z,6.86
2017-09-15T21:13:25.974Z,6.78
2017-09-15T21:15:54.327Z,6.79
2017-09-15T21:18:22.704Z,6.93
2017-09-15T21:20:51.086Z,6.86
2017-09-15T21:23:19.435Z,6.89
2017-09-15T21:25:47.794Z,6.85
2017-09-15T21:28:16.131Z,6.84
2017-09-15T21:30:44.499Z,6.74
2017-09-15T21:33:12.831Z,6.66
2017-09-15T21:35:41.163Z,6.59
2017-09-15T21:38:09.492Z,6.54
2017-09-15T21:40:37.848Z,6.57
2017-09-15T21:43:06.217Z,6.55
2017-09-15T21:45:34.558Z,6.60
2017-09-15T21:48:02.924Z,6.53
2017-09-15T21:50:31.328Z,6.50
2017-09-15T21:52:59.701Z,6.48
2017-09-15T21:55:28.107Z,6.51
2017-09-15T21:57:56.475Z,6.60
2017-09-15T22:00:24.886Z,6.65
2017-09-15T22:02:53.234Z,6.54
2017-09-15T22:05:22.023Z,6.62
2017-09-15T22:07:50.374Z,6.62
2017-09-15T22:10:18.714Z,6.52
2017-09-15T22:12:47.064Z,6.49
2017-09-15T22:15:15.440Z,6.51
2017-09-15T22:17:43.782Z,6.41
2017-09-15T22:20:12.155Z,6.38
2017-09-15T22:22:40.612Z,6.28
2017-09-15T22:25:08.950Z,6.30
2017-09-15T22:27:37.299Z,6.32
2017-09-15T22:30:05.647Z,6.22
2017-09-15T22:32:34.011Z,6.23
2017-09-15T22:35:02.347Z,6.15
2017-09-15T22:37:30.716Z,6.16
2017-09-15T22:39:59.190Z,6.22
2017-09-15T22:42:27.531Z,6.30
2017-09-15T22:44:55.872Z,6.43
2017-09-15T22:47:24.230Z,6.30
2017-09-15T22:49:52.607Z,6.17
2017-09-15T22:52:21.167Z,6.07
2017-09-15T22:54:49.507Z,6.16
2017-09-15T22:57:17.880Z,6.07
2017-09-15T22:59:46.614Z,5.96
2017-09-15T23:02:14.967Z,5.90
2017-09-15T23:04:43.375Z,5.87
2017-09-15T23:07:11.715Z,5.78
2017-09-15T23:09:40.095Z,5.82
2017-09-15T23:12:08.450Z,5.76
2017-09-15T23:14:36.791Z,5.77
2017-09-15T23:17:05.138Z,5.82
2017-09-15T23:19:33.482Z,5.85
2017-09-15T23:22:02.002Z,5.69
2017-09-15T23:24:30.399Z,5.67
2017-09-15T23:26:58.746Z,5.74
2017-09-15T23:29:27.179Z,5.73
2017-09-15T23:31:55.574Z,5.62
2017-09-15T23:34:23.967Z,5.67
2017-09-15T23:36:52.455Z,5.71
2017-09-15T23:39:20.794Z,5.62
2017-09-15T23:41:49.145Z,5.62
2017-09-15T23:44:17.486Z,5.80
2017-09-15T23:46:45.922Z,5.69
2017-09-15T23:49:14.310Z,5.83
2017-09-15T23:51:42.702Z,5.87
2017-09-15T23:54:11.124Z,5.72
2017-09-15T23:56:39.512Z,5.79
2017-09-15T23:59:07.855Z,5.67
